sensor_id;sensor_type;location;lat;lon;timestamp;P1;durP1;ratioP1;P2;durP2;ratioP2
13366;SDS011;6752;52.612;13.630;2022-12-04T00:02:49;138.00;;;69.05;;
13366;SDS011;6752;52.612;13.630;2022-12-04T00:07:52;152.80;;;72.90;;
13366;SDS011;6752;52.612;13.630;2022-12-04T00:12:55;148.00;;;72.12;;
13366;SDS011;6752;52.612;13.630;2022-12-04T00:17:57;148.68;;;71.90;;
13366;SDS011;6752;52.612;13.630;2022-12-04T00:23:02;140.30;;;68.12;;
13366;SDS011;6752;52.612;13.630;2022-12-04T00:28:05;150.12;;;72.05;;
13366;SDS011;6752;52.612;13.630;2022-12-04T00:33:10;149.60;;;73.80;;
13366;SDS011;6752;52.612;13.630;2022-12-04T00:38:12;142.73;;;88.43;;
13366;SDS011;6752;52.612;13.630;2022-12-04T00:43:18;151.40;;;72.95;;
13366;SDS011;6752;52.612;13.630;2022-12-04T00:48:20;151.23;;;73.03;;
13366;SDS011;6752;52.612;13.630;2022-12-04T00:53:25;154.90;;;71.68;;
13366;SDS011;6752;52.612;13.630;2022-12-04T00:58:28;153.73;;;73.03;;
13366;SDS011;6752;52.612;13.630;2022-12-04T01:03:30;158.10;;;73.60;;
13366;SDS011;6752;52.612;13.630;2022-12-04T01:08:33;161.90;;;76.20;;
13366;SDS011;6752;52.612;13.630;2022-12-04T01:13:37;162.82;;;76.57;;
13366;SDS011;6752;52.612;13.630;2022-12-04T01:18:40;154.02;;;74.35;;
13366;SDS011;6752;52.612;13.630;2022-12-04T01:23:42;158.32;;;76.43;;
13366;SDS011;6752;52.612;13.630;2022-12-04T01:28:45;164.70;;;98.32;;
13366;SDS011;6752;52.612;13.630;2022-12-04T01:33:50;148.73;;;75.78;;
13366;SDS011;6752;52.612;13.630;2022-12-04T01:38:52;145.45;;;72.28;;
13366;SDS011;6752;52.612;13.630;2022-12-04T01:44:15;157.88;;;93.90;;
13366;SDS011;6752;52.612;13.630;2022-12-04T01:49:20;168.70;;;77.78;;
13366;SDS011;6752;52.612;13.630;2022-12-04T01:54:26;155.12;;;72.30;;
13366;SDS011;6752;52.612;13.630;2022-12-04T01:59:27;166.50;;;76.75;;
13366;SDS011;6752;52.612;13.630;2022-12-04T02:04:31;161.00;;;76.87;;
13366;SDS011;6752;52.612;13.630;2022-12-04T02:09:34;170.20;;;78.00;;
13366;SDS011;6752;52.612;13.630;2022-12-04T02:14:51;171.32;;;75.00;;
13366;SDS011;6752;52.612;13.630;2022-12-04T02:30:25;157.73;;;71.62;;
13366;SDS011;6752;52.612;13.630;2022-12-04T02:35:35;171.55;;;79.40;;
13366;SDS011;6752;52.612;13.630;2022-12-04T02:40:40;148.82;;;72.85;;
13366;SDS011;6752;52.612;13.630;2022-12-04T02:45:44;162.95;;;75.55;;
13366;SDS011;6752;52.612;13.630;2022-12-04T02:50:46;156.02;;;73.47;;
13366;SDS011;6752;52.612;13.630;2022-12-04T02:55:52;166.95;;;76.85;;
13366;SDS011;6752;52.612;13.630;2022-12-04T03:00:56;170.77;;;75.82;;
13366;SDS011;6752;52.612;13.630;2022-12-04T03:11:00;195.48;;;82.15;;
13366;SDS011;6752;52.612;13.630;2022-12-04T03:16:05;185.95;;;80.75;;
13366;SDS011;6752;52.612;13.630;2022-12-04T03:21:07;183.80;;;79.45;;
13366;SDS011;6752;52.612;13.630;2022-12-04T03:26:14;170.50;;;74.85;;
13366;SDS011;6752;52.612;13.630;2022-12-04T03:31:17;171.85;;;74.82;;
13366;SDS011;6752;52.612;13.630;2022-12-04T03:36:23;169.85;;;75.90;;
13366;SDS011;6752;52.612;13.630;2022-12-04T03:41:25;163.62;;;74.72;;
13366;SDS011;6752;52.612;13.630;2022-12-04T03:46:34;159.15;;;75.03;;
13366;SDS011;6752;52.612;13.630;2022-12-04T03:51:42;162.70;;;74.90;;
13366;SDS011;6752;52.612;13.630;2022-12-04T03:56:44;157.93;;;72.05;;
13366;SDS011;6752;52.612;13.630;2022-12-04T04:01:48;164.57;;;73.70;;
13366;SDS011;6752;52.612;13.630;2022-12-04T04:06:54;153.23;;;92.78;;
13366;SDS011;6752;52.612;13.630;2022-12-04T04:12:02;155.45;;;73.87;;
13366;SDS011;6752;52.612;13.630;2022-12-04T04:17:07;153.07;;;92.00;;
13366;SDS011;6752;52.612;13.630;2022-12-04T04:22:27;135.80;;;67.65;;
13366;SDS011;6752;52.612;13.630;2022-12-04T04:27:53;158.30;;;71.07;;
13366;SDS011;6752;52.612;13.630;2022-12-04T04:38:18;132.32;;;68.82;;
13366;SDS011;6752;52.612;13.630;2022-12-04T04:43:19;147.55;;;70.85;;
13366;SDS011;6752;52.612;13.630;2022-12-04T04:48:40;155.90;;;69.22;;
13366;SDS011;6752;52.612;13.630;2022-12-04T04:53:38;152.25;;;70.30;;
13366;SDS011;6752;52.612;13.630;2022-12-04T04:58:40;152.32;;;71.53;;
13366;SDS011;6752;52.612;13.630;2022-12-04T05:03:43;158.27;;;70.22;;
13366;SDS011;6752;52.612;13.630;2022-12-04T05:08:45;151.00;;;68.62;;
13366;SDS011;6752;52.612;13.630;2022-12-04T05:13:50;173.55;;;73.60;;
13366;SDS011;6752;52.612;13.630;2022-12-04T05:18:52;152.05;;;70.10;;
13366;SDS011;6752;52.612;13.630;2022-12-04T05:24:13;171.40;;;73.82;;
13366;SDS011;6752;52.612;13.630;2022-12-04T05:29:16;149.07;;;68.95;;
13366;SDS011;6752;52.612;13.630;2022-12-04T05:34:21;155.93;;;73.87;;
13366;SDS011;6752;52.612;13.630;2022-12-04T05:39:23;149.15;;;71.75;;
13366;SDS011;6752;52.612;13.630;2022-12-04T05:44:28;172.23;;;74.43;;
13366;SDS011;6752;52.612;13.630;2022-12-04T05:49:31;150.45;;;89.15;;
13366;SDS011;6752;52.612;13.630;2022-12-04T05:54:36;150.35;;;71.57;;
13366;SDS011;6752;52.612;13.630;2022-12-04T05:59:39;132.30;;;82.07;;
13366;SDS011;6752;52.612;13.630;2022-12-04T06:04:44;127.93;;;63.47;;
13366;SDS011;6752;52.612;13.630;2022-12-04T06:09:46;131.90;;;84.20;;
13366;SDS011;6752;52.612;13.630;2022-12-04T06:14:52;134.57;;;69.53;;
13366;SDS011;6752;52.612;13.630;2022-12-04T06:19:55;131.95;;;67.45;;
13366;SDS011;6752;52.612;13.630;2022-12-04T06:24:57;124.00;;;64.85;;
13366;SDS011;6752;52.612;13.630;2022-12-04T06:30:00;140.77;;;66.85;;
13366;SDS011;6752;52.612;13.630;2022-12-04T06:35:05;168.77;;;73.30;;
13366;SDS011;6752;52.612;13.630;2022-12-04T06:40:08;149.52;;;69.25;;
13366;SDS011;6752;52.612;13.630;2022-12-04T06:45:13;150.57;;;69.35;;
13366;SDS011;6752;52.612;13.630;2022-12-04T06:50:15;140.27;;;66.05;;
13366;SDS011;6752;52.612;13.630;2022-12-04T07:00:19;141.50;;;68.03;;
13366;SDS011;6752;52.612;13.630;2022-12-04T07:05:25;147.20;;;69.28;;
13366;SDS011;6752;52.612;13.630;2022-12-04T07:10:27;142.25;;;67.32;;
13366;SDS011;6752;52.612;13.630;2022-12-04T07:20:34;140.55;;;66.35;;
13366;SDS011;6752;52.612;13.630;2022-12-04T07:25:39;150.93;;;69.80;;
13366;SDS011;6752;52.612;13.630;2022-12-04T07:30:42;132.45;;;65.43;;
13366;SDS011;6752;52.612;13.630;2022-12-04T07:35:53;141.73;;;65.85;;
13366;SDS011;6752;52.612;13.630;2022-12-04T07:40:56;143.85;;;66.65;;
13366;SDS011;6752;52.612;13.630;2022-12-04T07:46:04;140.02;;;67.90;;
13366;SDS011;6752;52.612;13.630;2022-12-04T07:51:09;134.57;;;66.25;;
13366;SDS011;6752;52.612;13.630;2022-12-04T07:56:11;132.48;;;64.15;;
13366;SDS011;6752;52.612;13.630;2022-12-04T08:01:14;130.93;;;62.55;;
13366;SDS011;6752;52.612;13.630;2022-12-04T08:06:19;169.80;;;70.60;;
13366;SDS011;6752;52.612;13.630;2022-12-04T08:11:22;140.62;;;67.22;;
13366;SDS011;6752;52.612;13.630;2022-12-04T08:16:27;139.02;;;65.80;;
13366;SDS011;6752;52.612;13.630;2022-12-04T08:21:30;129.63;;;64.40;;
13366;SDS011;6752;52.612;13.630;2022-12-04T08:26:32;133.20;;;66.30;;
13366;SDS011;6752;52.612;13.630;2022-12-04T08:31:34;143.80;;;65.97;;
13366;SDS011;6752;52.612;13.630;2022-12-04T08:36:36;150.12;;;66.20;;
13366;SDS011;6752;52.612;13.630;2022-12-04T08:41:39;133.87;;;78.37;;
13366;SDS011;6752;52.612;13.630;2022-12-04T08:46:41;123.38;;;63.20;;
13366;SDS011;6752;52.612;13.630;2022-12-04T08:51:44;131.80;;;60.88;;
13366;SDS011;6752;52.612;13.630;2022-12-04T08:56:46;127.45;;;63.38;;
13366;SDS011;6752;52.612;13.630;2022-12-04T09:01:49;136.75;;;64.45;;
13366;SDS011;6752;52.612;13.630;2022-12-04T09:06:51;131.20;;;61.80;;
13366;SDS011;6752;52.612;13.630;2022-12-04T09:11:53;140.55;;;64.90;;
13366;SDS011;6752;52.612;13.630;2022-12-04T09:16:56;138.55;;;65.47;;
13366;SDS011;6752;52.612;13.630;2022-12-04T09:21:58;138.30;;;64.70;;
13366;SDS011;6752;52.612;13.630;2022-12-04T09:27:01;135.18;;;62.88;;
13366;SDS011;6752;52.612;13.630;2022-12-04T09:32:03;149.43;;;65.70;;
13366;SDS011;6752;52.612;13.630;2022-12-04T09:37:05;125.72;;;61.50;;
13366;SDS011;6752;52.612;13.630;2022-12-04T09:58:05;120.62;;;62.72;;
13366;SDS011;6752;52.612;13.630;2022-12-04T10:03:14;125.38;;;59.83;;
13366;SDS011;6752;52.612;13.630;2022-12-04T10:13:42;131.10;;;64.22;;
13366;SDS011;6752;52.612;13.630;2022-12-04T10:29:35;135.23;;;66.22;;
13366;SDS011;6752;52.612;13.630;2022-12-04T10:34:40;118.60;;;74.37;;
13366;SDS011;6752;52.612;13.630;2022-12-04T10:39:48;120.50;;;60.53;;
13366;SDS011;6752;52.612;13.630;2022-12-04T10:44:50;106.97;;;56.05;;
13366;SDS011;6752;52.612;13.630;2022-12-04T10:49:55;122.72;;;58.40;;
13366;SDS011;6752;52.612;13.630;2022-12-04T10:55:04;117.50;;;56.45;;
13366;SDS011;6752;52.612;13.630;2022-12-04T11:00:22;111.35;;;59.90;;
13366;SDS011;6752;52.612;13.630;2022-12-04T11:05:42;117.28;;;72.20;;
13366;SDS011;6752;52.612;13.630;2022-12-04T11:10:42;116.10;;;57.25;;
13366;SDS011;6752;52.612;13.630;2022-12-04T11:15:48;112.45;;;56.63;;
13366;SDS011;6752;52.612;13.630;2022-12-04T11:26:05;114.28;;;56.55;;
13366;SDS011;6752;52.612;13.630;2022-12-04T11:31:14;116.32;;;58.40;;
13366;SDS011;6752;52.612;13.630;2022-12-04T11:36:23;114.25;;;57.90;;
13366;SDS011;6752;52.612;13.630;2022-12-04T11:41:27;114.30;;;70.95;;
13366;SDS011;6752;52.612;13.630;2022-12-04T11:46:30;106.28;;;54.70;;
13366;SDS011;6752;52.612;13.630;2022-12-04T11:56:48;113.88;;;54.47;;
13366;SDS011;6752;52.612;13.630;2022-12-04T12:02:39;119.45;;;56.05;;
13366;SDS011;6752;52.612;13.630;2022-12-04T12:12:27;111.68;;;54.20;;
13366;SDS011;6752;52.612;13.630;2022-12-04T12:22:51;104.82;;;66.20;;
13366;SDS011;6752;52.612;13.630;2022-12-04T12:33:22;110.57;;;54.80;;
13366;SDS011;6752;52.612;13.630;2022-12-04T12:38:33;117.05;;;56.15;;
13366;SDS011;6752;52.612;13.630;2022-12-04T12:43:34;120.07;;;58.38;;
13366;SDS011;6752;52.612;13.630;2022-12-04T12:48:39;122.07;;;58.67;;
13366;SDS011;6752;52.612;13.630;2022-12-04T12:53:54;124.30;;;58.50;;
13366;SDS011;6752;52.612;13.630;2022-12-04T12:58:57;122.55;;;58.75;;
13366;SDS011;6752;52.612;13.630;2022-12-04T13:04:10;116.47;;;57.55;;
13366;SDS011;6752;52.612;13.630;2022-12-04T13:09:17;135.90;;;58.17;;
13366;SDS011;6752;52.612;13.630;2022-12-04T13:19:25;128.00;;;58.45;;
13366;SDS011;6752;52.612;13.630;2022-12-04T13:29:56;130.98;;;58.78;;
13366;SDS011;6752;52.612;13.630;2022-12-04T13:35:14;138.77;;;62.00;;
13366;SDS011;6752;52.612;13.630;2022-12-04T13:45:25;142.48;;;61.28;;
13366;SDS011;6752;52.612;13.630;2022-12-04T13:50:32;141.98;;;61.95;;
13366;SDS011;6752;52.612;13.630;2022-12-04T13:55:36;148.43;;;62.47;;
13366;SDS011;6752;52.612;13.630;2022-12-04T14:00:39;157.50;;;67.43;;
13366;SDS011;6752;52.612;13.630;2022-12-04T14:05:43;161.23;;;66.07;;
13366;SDS011;6752;52.612;13.630;2022-12-04T14:10:55;175.25;;;70.28;;
13366;SDS011;6752;52.612;13.630;2022-12-04T14:21:00;118.97;;;52.42;;
13366;SDS011;6752;52.612;13.630;2022-12-04T14:25:58;149.23;;;65.80;;
13366;SDS011;6752;52.612;13.630;2022-12-04T14:36:34;152.00;;;63.30;;
13366;SDS011;6752;52.612;13.630;2022-12-04T14:41:38;168.23;;;68.03;;
13366;SDS011;6752;52.612;13.630;2022-12-04T14:46:45;161.25;;;66.47;;
13366;SDS011;6752;52.612;13.630;2022-12-04T14:51:49;176.43;;;68.70;;
13366;SDS011;6752;52.612;13.630;2022-12-04T15:02:02;179.10;;;68.95;;
13366;SDS011;6752;52.612;13.630;2022-12-04T15:07:07;176.40;;;68.55;;
13366;SDS011;6752;52.612;13.630;2022-12-04T15:12:15;173.55;;;70.20;;
13366;SDS011;6752;52.612;13.630;2022-12-04T15:17:33;246.90;;;79.93;;
13366;SDS011;6752;52.612;13.630;2022-12-04T15:22:35;193.15;;;69.15;;
13366;SDS011;6752;52.612;13.630;2022-12-04T15:27:38;189.75;;;69.28;;
13366;SDS011;6752;52.612;13.630;2022-12-04T15:32:40;219.95;;;75.85;;
13366;SDS011;6752;52.612;13.630;2022-12-04T15:37:43;200.68;;;71.87;;
13366;SDS011;6752;52.612;13.630;2022-12-04T15:42:45;193.60;;;72.80;;
13366;SDS011;6752;52.612;13.630;2022-12-04T15:47:51;206.00;;;92.88;;
13366;SDS011;6752;52.612;13.630;2022-12-04T15:58:18;172.27;;;68.10;;
13366;SDS011;6752;52.612;13.630;2022-12-04T16:03:22;178.12;;;69.70;;
13366;SDS011;6752;52.612;13.630;2022-12-04T16:13:38;169.93;;;63.70;;
13366;SDS011;6752;52.612;13.630;2022-12-04T16:18:41;167.70;;;65.93;;
13366;SDS011;6752;52.612;13.630;2022-12-04T16:23:43;216.98;;;72.82;;
13366;SDS011;6752;52.612;13.630;2022-12-04T16:28:46;201.85;;;71.22;;
13366;SDS011;6752;52.612;13.630;2022-12-04T16:33:51;190.52;;;71.62;;
13366;SDS011;6752;52.612;13.630;2022-12-04T16:38:53;203.82;;;72.30;;
13366;SDS011;6752;52.612;13.630;2022-12-04T16:43:59;298.00;;;89.57;;
13366;SDS011;6752;52.612;13.630;2022-12-04T16:49:01;235.10;;;76.87;;
13366;SDS011;6752;52.612;13.630;2022-12-04T16:54:10;297.37;;;84.43;;
13366;SDS011;6752;52.612;13.630;2022-12-04T16:59:08;184.57;;;68.75;;
13366;SDS011;6752;52.612;13.630;2022-12-04T17:04:15;173.65;;;72.40;;
13366;SDS011;6752;52.612;13.630;2022-12-04T17:09:17;265.65;;;78.78;;
13366;SDS011;6752;52.612;13.630;2022-12-04T17:14:22;206.80;;;74.28;;
13366;SDS011;6752;52.612;13.630;2022-12-04T17:19:24;187.93;;;90.40;;
13366;SDS011;6752;52.612;13.630;2022-12-04T17:24:29;220.43;;;72.75;;
13366;SDS011;6752;52.612;13.630;2022-12-04T17:29:34;286.37;;;80.75;;
13366;SDS011;6752;52.612;13.630;2022-12-04T17:34:36;271.77;;;79.47;;
13366;SDS011;6752;52.612;13.630;2022-12-04T17:39:39;211.70;;;72.57;;
13366;SDS011;6752;52.612;13.630;2022-12-04T17:44:44;205.82;;;73.03;;
13366;SDS011;6752;52.612;13.630;2022-12-04T17:49:47;178.05;;;67.15;;
13366;SDS011;6752;52.612;13.630;2022-12-04T17:54:52;207.68;;;73.87;;
13366;SDS011;6752;52.612;13.630;2022-12-04T17:59:54;226.15;;;78.70;;
13366;SDS011;6752;52.612;13.630;2022-12-04T18:05:00;174.45;;;71.97;;
13366;SDS011;6752;52.612;13.630;2022-12-04T18:10:02;195.07;;;71.12;;
13366;SDS011;6752;52.612;13.630;2022-12-04T18:15:05;170.35;;;88.35;;
13366;SDS011;6752;52.612;13.630;2022-12-04T18:20:07;188.20;;;71.70;;
13366;SDS011;6752;52.612;13.630;2022-12-04T18:25:10;225.55;;;75.20;;
13366;SDS011;6752;52.612;13.630;2022-12-04T18:30:12;231.95;;;71.70;;
13366;SDS011;6752;52.612;13.630;2022-12-04T18:35:17;175.18;;;67.28;;
13366;SDS011;6752;52.612;13.630;2022-12-04T18:40:20;151.70;;;66.25;;
13366;SDS011;6752;52.612;13.630;2022-12-04T18:45:25;142.27;;;66.47;;
13366;SDS011;6752;52.612;13.630;2022-12-04T18:50:28;247.93;;;79.40;;
13366;SDS011;6752;52.612;13.630;2022-12-04T18:55:34;164.73;;;65.62;;
13366;SDS011;6752;52.612;13.630;2022-12-04T19:00:37;172.18;;;68.30;;
13366;SDS011;6752;52.612;13.630;2022-12-04T19:05:48;179.77;;;71.25;;
13366;SDS011;6752;52.612;13.630;2022-12-04T19:10:51;201.02;;;92.37;;
13366;SDS011;6752;52.612;13.630;2022-12-04T19:15:53;194.13;;;71.47;;
13366;SDS011;6752;52.612;13.630;2022-12-04T19:20:58;151.25;;;68.00;;
13366;SDS011;6752;52.612;13.630;2022-12-04T19:26:00;195.70;;;73.97;;
13366;SDS011;6752;52.612;13.630;2022-12-04T19:31:03;188.85;;;74.93;;
13366;SDS011;6752;52.612;13.630;2022-12-04T19:36:08;162.57;;;69.03;;
13366;SDS011;6752;52.612;13.630;2022-12-04T19:41:12;154.90;;;71.28;;
13366;SDS011;6752;52.612;13.630;2022-12-04T19:46:17;156.60;;;69.35;;
13366;SDS011;6752;52.612;13.630;2022-12-04T19:51:19;179.80;;;73.55;;
13366;SDS011;6752;52.612;13.630;2022-12-04T19:56:24;141.37;;;64.32;;
13366;SDS011;6752;52.612;13.630;2022-12-04T20:06:35;211.98;;;76.07;;
13366;SDS011;6752;52.612;13.630;2022-12-04T20:11:36;215.00;;;74.05;;
13366;SDS011;6752;52.612;13.630;2022-12-04T20:16:41;219.77;;;70.87;;
13366;SDS011;6752;52.612;13.630;2022-12-04T20:26:48;170.07;;;67.82;;
13366;SDS011;6752;52.612;13.630;2022-12-04T20:36:56;143.10;;;63.22;;
13366;SDS011;6752;52.612;13.630;2022-12-04T20:41:58;164.15;;;66.82;;
13366;SDS011;6752;52.612;13.630;2022-12-04T20:47:03;140.43;;;63.28;;
13366;SDS011;6752;52.612;13.630;2022-12-04T20:52:06;272.80;;;79.62;;
13366;SDS011;6752;52.612;13.630;2022-12-04T20:57:11;163.82;;;66.97;;
13366;SDS011;6752;52.612;13.630;2022-12-04T21:02:14;139.43;;;78.45;;
13366;SDS011;6752;52.612;13.630;2022-12-04T21:07:19;171.75;;;68.65;;
13366;SDS011;6752;52.612;13.630;2022-12-04T21:12:24;250.90;;;76.97;;
13366;SDS011;6752;52.612;13.630;2022-12-04T21:17:45;176.65;;;65.85;;
13366;SDS011;6752;52.612;13.630;2022-12-04T21:22:50;190.57;;;71.05;;
13366;SDS011;6752;52.612;13.630;2022-12-04T21:27:52;222.82;;;71.35;;
13366;SDS011;6752;52.612;13.630;2022-12-04T21:32:55;192.45;;;68.62;;
13366;SDS011;6752;52.612;13.630;2022-12-04T21:37:57;195.30;;;72.85;;
13366;SDS011;6752;52.612;13.630;2022-12-04T21:43:00;157.15;;;64.90;;
13366;SDS011;6752;52.612;13.630;2022-12-04T21:48:02;172.93;;;67.12;;
13366;SDS011;6752;52.612;13.630;2022-12-04T21:53:04;176.80;;;70.80;;
13366;SDS011;6752;52.612;13.630;2022-12-04T21:58:07;204.25;;;72.10;;
13366;SDS011;6752;52.612;13.630;2022-12-04T22:03:09;160.25;;;67.12;;
13366;SDS011;6752;52.612;13.630;2022-12-04T22:08:12;198.18;;;72.18;;
13366;SDS011;6752;52.612;13.630;2022-12-04T22:13:14;154.75;;;68.07;;
13366;SDS011;6752;52.612;13.630;2022-12-04T22:18:17;147.13;;;66.30;;
13366;SDS011;6752;52.612;13.630;2022-12-04T22:23:19;149.98;;;67.53;;
13366;SDS011;6752;52.612;13.630;2022-12-04T22:28:22;173.30;;;72.10;;
13366;SDS011;6752;52.612;13.630;2022-12-04T22:33:24;142.15;;;65.93;;
13366;SDS011;6752;52.612;13.630;2022-12-04T22:38:27;175.90;;;90.47;;
13366;SDS011;6752;52.612;13.630;2022-12-04T22:43:29;210.07;;;89.50;;
13366;SDS011;6752;52.612;13.630;2022-12-04T22:48:32;181.00;;;70.22;;
13366;SDS011;6752;52.612;13.630;2022-12-04T22:53:35;134.00;;;63.00;;
13366;SDS011;6752;52.612;13.630;2022-12-04T22:58:36;159.40;;;82.47;;
13366;SDS011;6752;52.612;13.630;2022-12-04T23:03:39;187.75;;;86.57;;
13366;SDS011;6752;52.612;13.630;2022-12-04T23:08:41;141.40;;;62.25;;
13366;SDS011;6752;52.612;13.630;2022-12-04T23:13:47;187.20;;;69.50;;
13366;SDS011;6752;52.612;13.630;2022-12-04T23:18:46;174.27;;;66.22;;
13366;SDS011;6752;52.612;13.630;2022-12-04T23:23:48;145.35;;;81.32;;
13366;SDS011;6752;52.612;13.630;2022-12-04T23:28:50;195.35;;;74.47;;
13366;SDS011;6752;52.612;13.630;2022-12-04T23:33:53;184.85;;;69.35;;
13366;SDS011;6752;52.612;13.630;2022-12-04T23:38:55;147.55;;;62.62;;
13366;SDS011;6752;52.612;13.630;2022-12-04T23:43:57;174.02;;;71.25;;
13366;SDS011;6752;52.612;13.630;2022-12-04T23:49:00;162.77;;;70.15;;
13366;SDS011;6752;52.612;13.630;2022-12-04T23:54:02;199.15;;;72.05;;
13366;SDS011;6752;52.612;13.630;2022-12-04T23:59:05;155.83;;;85.87;;
